Skip to main content.

Regional Weather Summary








Warning: A non-numeric value encountered in /home/nwawlqmy/public_html/regionalwx.php on line 172

Warning: A non-numeric value encountered in /home/nwawlqmy/public_html/regionalwx.php on line 172
Station Name-Location
 
Time
 
Baro
Pressure
Outside
Temp
 Temp
Max
Temp
Min
Dew
Point
RH
%
Wind
Speed
Average
Wind Dir
Wind Max
Last Hr
Wind
Gust Max
Rain
Today
Rain
Last Hr
Rain Rate
in/hr
Rain
Month
Rain
Year
Vermilionweather-Near Lake Vermilion- -:- -:- -Invalid  - -.-    - -.-- -.-- -.-- -%- - -.-- -- - -.-- - -.-- - . -
Warning: A non-numeric value encountered in /home/nwawlqmy/public_html/regionalwx.php on line 172
0.00in
0.00in/hr- - . -- - . -
EMA HQ's-Home Gardens- -:- -:- -Old Data  - -.-    - -.-- -.-- -.-- -%- - -.-- -- - -.-- - -.-- - . -
Warning: A non-numeric value encountered in /home/nwawlqmy/public_html/regionalwx.php on line 172
0.00in
0.00in/hr- - . -- - . -
Mahomet04:00:2630.22 inHg 54.7°F 57.6°F54.7°F54.3°F99%2.9 mph SE5.8 mph 7.1 mph 0.00in0.00in0.00in/hr2.46in14.11in

Version 2.12 6th August 2012

If you own a personal weather station
and would like to have your data displayed here,
use the "Contact admin" link at the bottom of the page
to find out how.

For full weather information visit the individual websites above
This page was created by Clevedon Weather using some basic php scripts from TNET Weather.
The script for displaying the data has been produced by Clevedon Weather but has been modified by Vermilionweather.com for it's own use.



Nearby METAR Reports

Nearby METAR Reports

 

KDNV - Danville, Illinois, USA
Distance from station: 0 0mi, 0km
Updated: Sat, 15-May-2021 3:55am CDT
Clear
Clear
 Wind from calm
Wind: Calm
Temperature: 52°F , 11°C
Dew Point: 41°F , 5°C
Humidity: 67%
Barometer: 30.25 inHg , 1024.4 hPa
Clouds: Clear
Visibility: 10 miles , 16 km
2021/05/15 08:55 KDNV 150855Z AUTO 00000KT 10SM CLR 11/05 A3025 RMK AO2 T01050048
KTIP - Rantoul, Illinois, USA
Distance from station: W 30mi, 48km
Updated: Sat, 15-May-2021 3:55am CDT
Mostly Cloudy
Mostly Cloudy
 Wind from calm
Wind: Calm
Temperature: 52°F , 11°C
Dew Point: 37°F , 3°C
Humidity: 58%
Barometer: 30.23 inHg , 1023.7 hPa
Clouds: Mostly Cloudy
Visibility: 10 miles , 16 km
Cloud details: Mostly Cloudy 12000 ft
2021/05/15 08:55 KTIP 150855Z AUTO 00000KT 10SM BKN120 11/03 A3023 RMK AO2 T01100032
 
KPRG - Paris, Illinois, USA
Distance from station: S 35mi, 56km
Updated: Sat, 15-May-2021 3:55am CDT
Clear
Clear
 Wind from ESE
Wind: ESE 5 mph , 7 km/h
Temperature: 50°F , 10°C
Wind Chill: 48°F , 9°C
Dew Point: 41°F , 5°C
Humidity: 71%
Barometer: 30.25 inHg , 1024.4 hPa
Clouds: Clear
Visibility: 10 miles , 16 km
2021/05/15 08:55 KPRG 150855Z AUTO 12004KT 10SM CLR 10/05 A3025 RMK AO2 T01030046
KCMI - Champaign/Urbana, Illinois, USA
Distance from station: WSW 37mi, 60km
Updated: Sat, 15-May-2021 3:53am CDT
Mostly Cloudy
Mostly Cloudy
 Wind from SE
Wind: SE 6 mph , 9 km/h
Temperature: 52°F , 11°C
Dew Point: 37°F , 3°C
Humidity: 58%
Barometer: 30.23 inHg , 1023.7 hPa
Clouds: Mostly Cloudy
Visibility: 10 miles , 16 km
Cloud details: Mostly Cloudy 12000 ft
2021/05/15 08:53 KCMI 150853Z AUTO 13005KT 10SM BKN120 11/03 A3023 RMK AO2 SLP234 T01060033 55004
 
KLAF - Lafayette, Indiana, USA
Distance from station: ENE 38mi, 61km
Updated: Sat, 15-May-2021 3:54am CDT
Clear
Clear
 Wind from E
Wind: E 3 mph , 6 km/h
Temperature: 48°F , 9°C
Dew Point: 37°F , 3°C
Humidity: 66%
Barometer: 30.24 inHg , 1024 hPa
Clouds: Clear
Visibility: 10 miles , 16 km
2021/05/15 08:54 KLAF 150854Z AUTO 09003KT 10SM CLR 09/03 A3024 RMK AO2 SLP238 T00890033 55005
KCFJ - Crawfordsville, Indiana, USA
Distance from station: ESE 39mi, 63km
Updated: Sat, 15-May-2021 3:55am CDT
Clear
Clear
 Wind from calm
Wind: Calm
Temperature: 41°F , 5°C
Dew Point: 37°F , 3°C
Humidity: 87%
Barometer: 30.25 inHg , 1024.4 hPa
Clouds: Clear
Visibility: 10 miles , 16 km
2021/05/15 08:55 KCFJ 150855Z AUTO 00000KT 10SM CLR 05/03 A3025 RMK AO2 T00500025

Metar display script from Saratoga-Weather.org

Go To Top